Time;durP1;ratioP1;P1;durP2;ratioP2;P2;SDS_P1;SDS_P2;PMS_P1;PMS_P2;Temp;Humidity;BMP_temperature;BMP_pressure;BME280_temperature;BME280_humidity;BME280_pressure;Samples;Min_cycle;Max_cycle;Signal;HPM_P1;HPM_P2
2023/09/22 00:01:21;;;;;;;0.30;0.30;;;;;;;19.37;83.30;98740.47;5027727;28;20286;-78
2023/09/22 00:03:47;;;;;;;0.43;0.33;;;;;;;19.39;83.45;98747.19;5012832;28;20204;-77
2023/09/22 00:06:13;;;;;;;0.00;0.00;;;;;;;19.43;83.51;98741.63;5012835;28;20180;-77
2023/09/22 00:08:39;;;;;;;0.00;0.00;;;;;;;19.36;83.30;98733.38;5012953;28;20239;-77
2023/09/22 00:11:13;;;;;;;0.10;0.10;;;;;;;19.31;83.31;98737.38;5012020;28;20204;-78
2023/09/22 00:13:39;;;;;;;0.20;0.20;;;;;;;18.80;84.20;98711.38;5012446;28;20204;-77
2023/09/22 00:16:05;;;;;;;0.67;0.30;;;;;;;18.60;85.40;98707.56;5011141;28;20226;-75
2023/09/22 00:18:30;;;;;;;0.27;0.27;;;;;;;18.39;86.14;98709.31;5011449;28;20188;-78
2023/09/22 00:20:55;;;;;;;0.20;0.20;;;;;;;18.32;86.91;98697.50;5012014;28;20690;-77
2023/09/22 00:23:21;;;;;;;0.40;0.20;;;;;;;18.26;87.51;98712.97;5012528;28;20205;-77
2023/09/22 00:25:46;;;;;;;0.00;0.00;;;;;;;18.36;87.17;98728.69;5011160;28;20192;-77
2023/09/22 00:28:11;;;;;;;0.27;0.27;;;;;;;18.21;87.59;98724.44;5012281;28;20207;-78
2023/09/22 00:30:37;;;;;;;0.30;0.10;;;;;;;18.05;87.62;98720.19;5010627;28;20292;-76
2023/09/22 00:33:02;;;;;;;1.50;0.77;;;;;;;18.12;87.56;98717.41;5011104;28;20246;-78
2023/09/22 00:35:28;;;;;;;0.20;0.20;;;;;;;18.08;87.68;98715.81;5011144;28;20184;-76
2023/09/22 00:37:53;;;;;;;0.40;0.40;;;;;;;17.87;87.57;98693.84;5012251;28;20209;-76
2023/09/22 00:40:19;;;;;;;0.00;0.00;;;;;;;18.20;86.66;98728.41;5010686;28;20661;-77
2023/09/22 00:42:45;;;;;;;0.50;0.50;;;;;;;18.05;86.73;98725.72;5013147;28;20208;-76
2023/09/22 00:45:11;;;;;;;0.80;0.80;;;;;;;18.06;86.94;98729.25;5015166;28;20551;-77
2023/09/22 00:47:37;;;;;;;0.00;0.00;;;;;;;18.08;87.14;98744.28;5031711;28;20278;-77
2023/09/22 00:50:03;;;;;;;0.20;0.20;;;;;;;18.07;87.08;98737.16;5014331;28;20216;-76
2023/09/22 00:52:29;;;;;;;0.40;0.40;;;;;;;17.84;87.80;98717.53;5014570;28;20238;-76
2023/09/22 00:54:57;;;;;;;1.37;0.10;;;;;;;17.83;88.06;98727.81;5015064;28;20193;-77
2023/09/22 00:57:23;;;;;;;0.20;0.20;;;;;;;18.13;87.25;98741.06;5015414;28;20268;-77
2023/09/22 00:59:50;;;;;;;0.20;0.20;;;;;;;18.27;85.95;98737.44;5014655;28;20204;-76
2023/09/22 01:02:15;;;;;;;0.37;0.37;;;;;;;18.18;85.62;98739.84;5015384;28;20376;-77
2023/09/22 01:04:41;;;;;;;0.30;0.30;;;;;;;18.23;85.33;98739.44;5017137;28;20215;-78
2023/09/22 01:07:07;;;;;;;0.37;0.37;;;;;;;18.28;84.73;98750.06;5016865;28;20612;-78
2023/09/22 01:09:33;;;;;;;0.30;0.30;;;;;;;17.98;83.63;98722.22;5016265;28;20212;-77
2023/09/22 01:11:58;;;;;;;0.47;0.47;;;;;;;17.91;84.50;98725.78;5031455;28;20186;-78
2023/09/22 01:14:23;;;;;;;0.40;0.40;;;;;;;18.02;84.17;98734.81;5015214;28;20201;-78
2023/09/22 01:16:51;;;;;;;0.97;0.37;;;;;;;18.04;83.84;98737.16;5016324;28;20188;-78
2023/09/22 01:19:17;;;;;;;0.70;0.60;;;;;;;18.20;83.12;98745.75;5016359;28;20203;-78
2023/09/22 01:21:43;;;;;;;0.07;0.07;;;;;;;18.17;83.00;98743.03;5030845;28;20651;-78
2023/09/22 01:24:12;;;;;;;0.10;0.10;;;;;;;18.03;83.00;98730.84;5014501;28;20215;-78
2023/09/22 01:26:38;;;;;;;0.00;0.00;;;;;;;18.05;83.11;98742.28;5016023;28;20214;-78
2023/09/22 01:29:04;;;;;;;0.00;0.00;;;;;;;18.07;83.08;98733.59;5015995;28;20215;-77
2023/09/22 01:31:29;;;;;;;0.00;0.00;;;;;;;18.28;82.01;98744.53;5015743;28;20197;-78
2023/09/22 01:33:54;;;;;;;0.00;0.00;;;;;;;18.57;80.74;98747.13;5015562;28;20208;-78
2023/09/22 01:36:20;;;;;;;0.13;0.13;;;;;;;18.50;80.44;98745.16;5014101;28;20191;-78
2023/09/22 01:38:46;;;;;;;1.27;0.50;;;;;;;18.33;80.13;98738.56;5015670;28;20298;-76
2023/09/22 01:41:11;;;;;;;0.10;0.10;;;;;;;18.22;80.34;98737.84;5015039;28;20185;-78
2023/09/22 01:43:38;;;;;;;0.33;0.30;;;;;;;18.27;80.77;98759.56;5015566;28;20620;-77
2023/09/22 01:46:03;;;;;;;0.00;0.00;;;;;;;18.41;80.29;98755.91;5013837;28;20189;-77
2023/09/22 01:48:28;;;;;;;0.00;0.00;;;;;;;18.57;79.97;98758.19;5014992;28;20219;-77
2023/09/22 01:50:53;;;;;;;0.00;0.00;;;;;;;18.60;79.72;98760.13;5029272;28;20243;-78
2023/09/22 01:53:19;;;;;;;0.20;0.20;;;;;;;18.49;79.44;98748.34;5013234;28;20242;-77
2023/09/22 01:55:46;;;;;;;0.00;0.00;;;;;;;18.46;79.34;98763.78;5013083;28;20184;-78
2023/09/22 01:58:11;;;;;;;0.10;0.10;;;;;;;18.30;79.64;98755.97;5013723;28;20228;-78
2023/09/22 02:00:38;;;;;;;0.00;0.00;;;;;;;18.50;79.44;98783.09;5012885;28;20558;-78
2023/09/22 02:03:04;;;;;;;0.00;0.00;;;;;;;18.55;78.42;98768.88;5013402;28;20200;-78
2023/09/22 02:05:32;;;;;;;0.10;0.10;;;;;;;18.05;79.26;98753.34;5014997;28;20168;-77
2023/09/22 02:07:57;;;;;;;0.10;0.10;;;;;;;18.22;79.23;98775.75;5015514;28;20200;-76
2023/09/22 02:10:23;;;;;;;0.00;0.00;;;;;;;18.49;78.91;98784.31;5012940;28;20192;-77
2023/09/22 02:12:48;;;;;;;0.00;0.00;;;;;;;18.56;78.63;98779.53;5013286;28;20208;-77
2023/09/22 02:15:14;;;;;;;0.00;0.00;;;;;;;18.45;78.48;98773.25;5014613;28;20262;-77
2023/09/22 02:17:44;;;;;;;0.00;0.00;;;;;;;18.52;79.06;98789.03;5013585;28;20180;-78
2023/09/22 02:20:24;;;;;;;0.00;0.00;;;;;;;18.56;78.85;98785.06;5010139;28;21762;-78
2023/09/22 02:22:52;;;;;;;0.77;0.50;;;;;;;18.30;78.97;98772.56;5014993;28;20656;-78
2023/09/22 02:25:19;;;;;;;0.00;0.00;;;;;;;18.38;78.94;98785.19;5014829;28;20650;-76
2023/09/22 02:27:50;;;;;;;0.40;0.23;;;;;;;18.53;79.14;98802.47;5013779;28;20180;-77
2023/09/22 02:30:18;;;;;;;0.10;0.10;;;;;;;18.51;79.09;98798.50;5014785;28;20233;-78
2023/09/22 02:32:48;;;;;;;0.03;0.03;;;;;;;18.33;79.38;98787.56;5014712;28;20220;-77
2023/09/22 02:35:14;;;;;;;0.20;0.20;;;;;;;18.13;79.69;98784.50;5013948;28;20192;-78
2023/09/22 02:37:40;;;;;;;0.03;0.00;;;;;;;18.26;79.72;98795.91;5015315;28;20208;-78
2023/09/22 02:40:06;;;;;;;0.20;0.20;;;;;;;18.31;79.49;98796.25;5014623;28;20180;-78
2023/09/22 02:42:32;;;;;;;0.10;0.10;;;;;;;18.38;79.50;98793.47;5014601;28;20179;-76
2023/09/22 02:44:57;;;;;;;0.10;0.10;;;;;;;18.29;79.44;98793.13;5014215;28;20176;-78
2023/09/22 02:47:22;;;;;;;0.20;0.13;;;;;;;18.46;79.71;98812.78;5014756;28;20184;-78
2023/09/22 02:49:48;;;;;;;0.20;0.20;;;;;;;18.24;79.35;98796.31;5014272;28;20204;-78
2023/09/22 02:52:14;;;;;;;6.80;0.30;;;;;;;18.27;79.91;98803.00;5013080;28;20271;-77
2023/09/22 02:54:39;;;;;;;0.00;0.00;;;;;;;18.51;79.17;98812.34;5014703;28;20287;-78
2023/09/22 02:57:05;;;;;;;0.10;0.10;;;;;;;18.68;78.34;98815.03;5013451;28;20275;-78
2023/09/22 02:59:30;;;;;;;0.10;0.10;;;;;;;18.57;78.28;98794.91;5013004;28;20464;-78
2023/09/22 03:01:57;;;;;;;0.43;0.13;;;;;;;18.73;77.88;98805.50;5013949;28;20181;-77
2023/09/22 03:04:22;;;;;;;0.50;0.10;;;;;;;18.65;77.75;98802.00;5014465;28;20188;-77
2023/09/22 03:06:47;;;;;;;0.10;0.10;;;;;;;18.62;77.97;98811.09;5014418;28;20681;-77
2023/09/22 03:09:14;;;;;;;0.40;0.40;;;;;;;18.64;77.92;98805.16;5013172;28;20733;-78
2023/09/22 03:11:40;;;;;;;0.10;0.10;;;;;;;18.84;77.58;98805.44;5012378;28;20180;-79
2023/09/22 03:14:06;;;;;;;0.00;0.00;;;;;;;18.52;77.70;98783.50;5014022;28;20211;-77
2023/09/22 03:16:31;;;;;;;0.27;0.10;;;;;;;18.57;77.89;98786.63;5014657;28;20173;-78
2023/09/22 03:18:57;;;;;;;0.00;0.00;;;;;;;18.80;77.65;98805.44;5013525;28;20204;-77
2023/09/22 03:21:23;;;;;;;0.20;0.17;;;;;;;18.78;77.45;98802.31;5013686;28;20176;-77
2023/09/22 03:23:50;;;;;;;0.00;0.00;;;;;;;18.86;77.48;98808.59;5013802;28;20225;-78
2023/09/22 03:26:15;;;;;;;0.40;0.40;;;;;;;18.38;78.46;98799.00;5014079;28;20183;-78
2023/09/22 03:28:41;;;;;;;0.00;0.00;;;;;;;18.46;78.70;98804.47;5014141;28;20196;-76
2023/09/22 03:31:06;;;;;;;0.20;0.10;;;;;;;18.42;78.76;98787.91;5011882;28;20238;-76
2023/09/22 03:33:31;;;;;;;0.40;0.23;;;;;;;18.62;78.51;98796.47;5012847;28;20674;-78
2023/09/22 03:35:57;;;;;;;0.93;0.27;;;;;;;18.62;77.94;98790.94;5014126;28;20190;-77
2023/09/22 03:38:22;;;;;;;0.30;0.30;;;;;;;18.81;77.30;98795.97;5013897;28;20172;-78
2023/09/22 03:40:48;;;;;;;0.00;0.00;;;;;;;18.90;77.05;98789.97;5013771;28;20188;-78
2023/09/22 03:43:13;;;;;;;0.00;0.00;;;;;;;18.94;76.73;98801.78;5013311;28;20211;-78
2023/09/22 03:45:39;;;;;;;0.13;0.13;;;;;;;19.10;75.96;98796.53;5013726;28;20186;-78
2023/09/22 03:48:04;;;;;;;0.13;0.13;;;;;;;19.24;75.47;98814.97;5013648;28;20234;-78
2023/09/22 03:50:30;;;;;;;0.00;0.00;;;;;;;19.14;75.97;98807.56;5013458;28;20613;-78
2023/09/22 03:52:55;;;;;;;1.50;1.40;;;;;;;19.09;75.75;98805.22;5012203;28;20219;-78
2023/09/22 03:55:21;;;;;;;0.27;0.27;;;;;;;19.03;75.34;98797.38;5012766;28;20227;-78
2023/09/22 03:57:46;;;;;;;0.57;0.57;;;;;;;18.97;75.96;98803.75;5012816;28;20584;-75
2023/09/22 04:00:17;;;;;;;0.10;0.10;;;;;;;18.81;76.07;98782.13;5012230;28;20271;-77
2023/09/22 04:02:44;;;;;;;0.17;0.17;;;;;;;18.86;76.15;98789.22;5013038;28;20200;-76
2023/09/22 04:05:11;;;;;;;0.10;0.10;;;;;;;18.88;76.15;98795.13;5012529;28;20180;-78
2023/09/22 04:07:36;;;;;;;0.27;0.13;;;;;;;18.62;76.43;98772.34;5013995;28;20187;-77
2023/09/22 04:10:03;;;;;;;0.20;0.20;;;;;;;18.62;76.74;98777.09;5013412;28;20188;-76
2023/09/22 04:12:29;;;;;;;0.47;0.47;;;;;;;18.54;76.63;98776.38;5013580;28;20668;-78
2023/09/22 04:14:56;;;;;;;0.00;0.00;;;;;;;18.85;75.82;98782.88;5014360;28;20192;-78
2023/09/22 04:17:21;;;;;;;0.00;0.00;;;;;;;18.18;77.52;98759.22;5014265;28;20212;-77
2023/09/22 04:19:49;;;;;;;0.23;0.23;;;;;;;17.96;78.64;98761.31;5015407;28;20227;-76
2023/09/22 04:22:16;;;;;;;0.10;0.10;;;;;;;18.34;77.94;98800.97;5017601;28;20226;-77
2023/09/22 04:24:47;;;;;;;0.53;0.53;;;;;;;18.59;76.89;98795.31;5016650;28;20603;-78
2023/09/22 04:27:14;;;;;;;0.10;0.10;;;;;;;18.35;76.91;98779.63;5017988;28;20584;-78
2023/09/22 04:29:39;;;;;;;0.10;0.10;;;;;;;18.60;76.93;98809.91;5015835;28;20231;-77
2023/09/22 04:32:05;;;;;;;0.00;0.00;;;;;;;18.60;76.85;98801.63;5017830;28;20184;-76
2023/09/22 04:34:30;;;;;;;0.73;0.40;;;;;;;18.51;76.37;98779.94;5017772;28;20211;-77
2023/09/22 04:36:55;;;;;;;0.50;0.43;;;;;;;18.38;76.79;98774.09;5017620;28;20560;-77
2023/09/22 04:39:21;;;;;;;0.27;0.27;;;;;;;18.32;76.70;98786.78;5017265;28;20184;-76
2023/09/22 04:41:47;;;;;;;0.30;0.30;;;;;;;18.00;78.05;98803.53;5016711;28;20335;-78
2023/09/22 04:44:12;;;;;;;0.10;0.10;;;;;;;18.03;78.10;98801.94;5017389;28;20208;-77
2023/09/22 04:46:37;;;;;;;0.63;0.63;;;;;;;18.05;78.50;98827.19;5015937;28;20192;-78
2023/09/22 04:49:03;;;;;;;0.53;0.53;;;;;;;18.26;78.13;98832.63;5015603;28;20215;-78
2023/09/22 04:51:28;;;;;;;0.27;0.27;;;;;;;17.95;78.85;98845.41;5016544;28;20263;-77
2023/09/22 04:53:54;;;;;;;0.00;0.00;;;;;;;18.35;78.03;98873.66;5016708;28;20640;-77
2023/09/22 04:56:21;;;;;;;0.00;0.00;;;;;;;18.37;77.51;98852.72;5017064;28;20172;-78
2023/09/22 04:58:47;;;;;;;0.23;0.23;;;;;;;18.01;77.80;98841.03;5016957;28;20199;-75
2023/09/22 05:01:14;;;;;;;0.57;0.57;;;;;;;17.99;77.87;98837.88;5016108;28;20226;-78
2023/09/22 05:03:39;;;;;;;0.47;0.47;;;;;;;18.24;77.50;98818.44;5015341;28;20216;-78
2023/09/22 05:06:06;;;;;;;0.20;0.20;;;;;;;18.40;77.04;98809.66;5016396;28;20642;-78
2023/09/22 05:08:33;;;;;;;0.47;0.47;;;;;;;18.06;77.24;98795.59;5015652;28;20197;-78
2023/09/22 05:10:59;;;;;;;0.30;0.17;;;;;;;17.84;77.91;98783.84;5015058;28;20229;-76
2023/09/22 05:13:24;;;;;;;0.43;0.40;;;;;;;17.93;77.50;98788.94;5016103;28;20254;-76
2023/09/22 05:15:49;;;;;;;0.70;0.70;;;;;;;17.81;77.55;98810.31;5016668;28;20184;-77
2023/09/22 05:18:15;;;;;;;1.13;0.83;;;;;;;17.96;77.03;98807.50;5016510;28;20212;-77
2023/09/22 05:20:41;;;;;;;0.43;0.43;;;;;;;18.17;76.40;98825.97;5015943;28;20203;-78
2023/09/22 05:23:09;;;;;;;0.70;0.70;;;;;;;17.95;76.55;98836.31;5015286;28;20592;-77
2023/09/22 05:25:40;;;;;;;0.73;0.47;;;;;;;18.10;76.48;98851.66;5014800;28;20211;-78
2023/09/22 05:28:08;;;;;;;0.70;0.70;;;;;;;18.14;76.26;98853.22;5015770;28;20192;-77
2023/09/22 05:30:34;;;;;;;0.50;0.37;;;;;;;18.02;76.23;98850.09;5014332;28;20211;-77
2023/09/22 05:33:00;;;;;;;0.63;0.60;;;;;;;18.02;76.43;98858.41;5015335;28;20207;-77
2023/09/22 05:35:25;;;;;;;0.70;0.40;;;;;;;18.22;76.00;98869.75;5014343;28;20185;-77
2023/09/22 05:37:52;;;;;;;0.30;0.30;;;;;;;18.04;76.33;98864.31;5015146;28;20187;-77
2023/09/22 05:40:17;;;;;;;0.77;0.77;;;;;;;18.13;76.19;98887.56;5015163;28;20169;-77
2023/09/22 05:42:43;;;;;;;4.13;0.40;;;;;;;18.28;76.00;98907.66;5015363;28;20196;-78
2023/09/22 05:45:09;;;;;;;0.43;0.27;;;;;;;18.11;75.75;98909.31;5013962;28;20183;-77
2023/09/22 05:47:35;;;;;;;0.20;0.20;;;;;;;18.49;75.56;98941.94;5015216;28;20255;-78
2023/09/22 05:50:02;;;;;;;0.50;0.50;;;;;;;18.71;74.06;98933.19;5014534;28;20206;-77
2023/09/22 05:52:27;;;;;;;0.50;0.50;;;;;;;18.70;74.18;98925.31;5014912;28;20188;-78
2023/09/22 05:54:53;;;;;;;1.10;0.97;;;;;;;18.89;73.70;98944.16;5008292;28;20234;-78
2023/09/22 05:57:18;;;;;;;0.00;0.00;;;;;;;18.81;73.64;98939.09;5015072;28;20181;-77
2023/09/22 05:59:44;;;;;;;0.20;0.20;;;;;;;18.86;73.26;98958.03;5014285;28;20588;-78
2023/09/22 06:02:09;;;;;;;0.00;0.00;;;;;;;19.10;73.33;98995.88;5013373;28;20239;-76
2023/09/22 06:04:34;;;;;;;0.00;0.00;;;;;;;19.23;72.23;98971.22;5011017;28;20578;-77
2023/09/22 06:07:02;;;;;;;0.53;0.40;;;;;;;18.76;73.22;98958.84;5014217;28;20180;-78
2023/09/22 06:09:28;;;;;;;0.30;0.30;;;;;;;18.80;73.44;98971.47;5013698;28;20204;-78
2023/09/22 06:11:53;;;;;;;0.10;0.10;;;;;;;18.93;73.41;98980.13;5013527;28;20704;-78
2023/09/22 06:14:19;;;;;;;0.10;0.10;;;;;;;19.28;72.64;99004.84;5029852;28;20203;-77
2023/09/22 06:16:44;;;;;;;0.00;0.00;;;;;;;19.36;72.31;99002.81;5014455;28;20598;-78
2023/09/22 06:19:10;;;;;;;0.03;0.03;;;;;;;19.40;71.57;98981.44;5013714;28;20189;-78
2023/09/22 06:21:37;;;;;;;0.13;0.13;;;;;;;19.36;71.84;98977.88;5013847;28;20204;-78
2023/09/22 06:24:03;;;;;;;1.50;0.90;;;;;;;19.31;71.36;98964.47;5014323;28;20363;-76
2023/09/22 06:26:28;;;;;;;0.23;0.23;;;;;;;19.20;70.98;98952.66;5013917;28;20756;-78
2023/09/22 06:28:54;;;;;;;0.67;0.67;;;;;;;19.03;70.89;98930.25;5013657;28;20207;-78
2023/09/22 06:31:19;;;;;;;0.50;0.50;;;;;;;18.90;70.62;98922.81;5012221;28;20643;-77
2023/09/22 06:33:44;;;;;;;0.53;0.53;;;;;;;18.98;71.30;98950.06;5012205;28;20234;-78
2023/09/22 06:36:10;;;;;;;1.70;1.30;;;;;;;18.85;71.05;98943.41;5011206;28;20203;-78
2023/09/22 06:38:35;;;;;;;0.63;0.63;;;;;;;18.67;71.20;98929.66;5008257;28;20177;-78
2023/09/22 06:41:01;;;;;;;0.83;0.77;;;;;;;18.99;70.58;98954.38;5013324;28;20251;-78
2023/09/22 06:43:27;;;;;;;0.20;0.20;;;;;;;19.04;70.19;98936.56;5013324;28;20229;-77
2023/09/22 06:45:56;;;;;;;1.00;0.80;;;;;;;18.86;69.87;98936.66;5012197;28;20188;-78
2023/09/22 06:48:25;;;;;;;0.47;0.47;;;;;;;19.05;70.52;98970.56;5013193;28;20242;-77
2023/09/22 06:50:51;;;;;;;0.30;0.30;;;;;;;18.79;70.63;98950.53;5013052;28;20651;-76
2023/09/22 06:53:18;;;;;;;0.37;0.37;;;;;;;19.19;70.62;98992.63;5013361;28;20224;-76
2023/09/22 06:55:44;;;;;;;0.50;0.50;;;;;;;19.17;70.47;98984.72;5012894;28;20180;-76
2023/09/22 06:58:09;;;;;;;0.40;0.30;;;;;;;19.19;70.73;98981.56;5005673;28;20196;-76
2023/09/22 07:00:34;;;;;;;0.37;0.37;;;;;;;19.52;70.38;98997.53;4992589;28;20682;-76
2023/09/22 07:03:00;;;;;;;0.10;0.10;;;;;;;19.11;70.41;98947.59;4992674;28;20213;-76
2023/09/22 07:05:25;;;;;;;0.00;0.00;;;;;;;18.95;71.12;98945.31;4993347;28;20178;-76
2023/09/22 07:07:52;;;;;;;0.20;0.20;;;;;;;19.01;70.71;98943.69;4993568;28;20584;-76
2023/09/22 07:10:18;;;;;;;0.20;0.20;;;;;;;19.00;71.26;98961.50;4985271;28;20553;-76
2023/09/22 07:12:43;;;;;;;0.80;0.80;;;;;;;18.37;71.59;98932.09;4991895;28;20676;-77
2023/09/22 07:15:10;;;;;;;1.70;0.40;;;;;;;18.48;71.58;98962.50;4992188;28;20181;-76
2023/09/22 07:17:36;;;;;;;1.30;0.83;;;;;;;18.76;71.31;98992.06;5013974;28;20238;-76
2023/09/22 07:20:08;;;;;;;0.23;0.23;;;;;;;18.62;71.86;98990.09;5005030;28;20188;-82
2023/09/22 07:22:34;;;;;;;0.17;0.17;;;;;;;18.67;72.25;99025.72;5008393;28;20260;-77
2023/09/22 07:25:01;;;;;;;0.00;0.00;;;;;;;18.68;72.43;99010.69;4991572;28;20276;-77
2023/09/22 07:27:26;;;;;;;0.83;0.83;;;;;;;18.63;71.41;98991.69;4991553;28;20189;-76
2023/09/22 07:29:52;;;;;;;7.37;1.07;;;;;;;18.75;71.27;99005.09;4989622;28;20251;-77
2023/09/22 07:32:18;;;;;;;0.00;0.00;;;;;;;18.67;71.21;98992.50;5004756;28;20693;-77
2023/09/22 07:34:45;;;;;;;0.30;0.30;;;;;;;18.80;71.29;98993.63;5012648;28;20288;-77
2023/09/22 07:37:11;;;;;;;4.50;0.50;;;;;;;19.29;70.05;98994.56;5011060;28;20183;-78
2023/09/22 07:39:37;;;;;;;0.00;0.00;;;;;;;19.33;69.83;99001.63;5012025;28;20259;-77
2023/09/22 07:42:03;;;;;;;0.47;0.47;;;;;;;18.93;70.52;98986.44;5012319;28;20275;-78
2023/09/22 07:44:29;;;;;;;0.10;0.10;;;;;;;18.42;71.60;98940.78;5010928;28;20652;-77
2023/09/22 07:46:57;;;;;;;0.43;0.40;;;;;;;18.75;71.69;98971.13;5012311;28;20659;-77
2023/09/22 07:49:22;;;;;;;0.10;0.10;;;;;;;18.72;72.43;98981.81;5012617;28;20749;-77
2023/09/22 07:51:47;;;;;;;0.07;0.07;;;;;;;18.82;72.08;98991.25;5010935;28;20196;-77
2023/09/22 07:54:13;;;;;;;0.30;0.23;;;;;;;18.85;72.13;98995.97;5010491;28;20204;-78
2023/09/22 07:56:38;;;;;;;0.60;0.60;;;;;;;18.99;72.01;99011.75;5012513;28;20176;-77
2023/09/22 07:59:04;;;;;;;0.63;0.63;;;;;;;19.00;70.71;99010.53;5009900;28;20648;-78
2023/09/22 08:01:29;;;;;;;0.47;0.20;;;;;;;18.97;70.71;99025.19;5010583;28;20187;-77
2023/09/22 08:03:55;;;;;;;0.00;0.00;;;;;;;19.06;71.44;99039.38;5011021;28;20200;-77
2023/09/22 08:06:20;;;;;;;0.23;0.23;;;;;;;18.64;71.64;99007.13;5003659;28;20700;-77
2023/09/22 08:08:49;;;;;;;0.30;0.10;;;;;;;18.50;72.12;99018.19;5010463;28;20211;-77
2023/09/22 08:11:17;;;;;;;1.00;0.87;;;;;;;18.39;72.69;99013.50;5005750;28;20180;-76
2023/09/22 08:13:43;;;;;;;3.87;0.47;;;;;;;18.64;72.75;99032.81;5007471;28;20287;-77
2023/09/22 08:16:10;;;;;;;0.60;0.50;;;;;;;18.39;72.73;99016.28;4994466;28;20263;-77
2023/09/22 08:18:37;;;;;;;1.30;0.37;;;;;;;18.46;72.70;99032.03;4999731;28;20203;-77
2023/09/22 08:21:05;;;;;;;0.83;0.83;;;;;;;18.60;73.15;99056.91;5006408;28;20283;-76
2023/09/22 08:23:30;;;;;;;0.10;0.10;;;;;;;18.52;72.44;99049.84;5010540;28;20204;-78
2023/09/22 08:25:56;;;;;;;0.00;0.00;;;;;;;18.88;72.36;99064.34;5000239;28;20189;-78
2023/09/22 08:28:22;;;;;;;0.00;0.00;;;;;;;18.89;71.90;99059.63;4998591;28;20284;-77
2023/09/22 08:30:48;;;;;;;0.07;0.07;;;;;;;18.88;72.24;99053.28;5008500;28;20267;-78
2023/09/22 08:33:13;;;;;;;0.00;0.00;;;;;;;19.05;71.74;99078.53;5013351;28;20231;-78
2023/09/22 08:35:40;;;;;;;0.00;0.00;;;;;;;18.83;72.19;99072.31;5002885;28;20185;-79
2023/09/22 08:38:05;;;;;;;0.00;0.00;;;;;;;19.29;72.01;99092.28;4989867;28;20192;-80
2023/09/22 08:40:31;;;;;;;0.00;0.00;;;;;;;19.05;71.51;99054.41;5008946;28;20180;-78
2023/09/22 08:42:57;;;;;;;0.00;0.00;;;;;;;19.14;71.36;99048.44;5012542;28;20254;-78
2023/09/22 08:45:23;;;;;;;0.10;0.07;;;;;;;19.27;71.04;99055.09;5002618;28;20191;-77
2023/09/22 08:47:49;;;;;;;0.00;0.00;;;;;;;19.17;70.83;99055.94;5002132;28;20177;-77
2023/09/22 08:50:17;;;;;;;0.10;0.10;;;;;;;19.19;70.75;99070.94;5008541;28;20267;-78
2023/09/22 08:52:52;;;;;;;0.00;0.00;;;;;;;19.32;70.31;99077.63;5011447;28;20216;-78
2023/09/22 08:55:19;;;;;;;0.00;0.00;;;;;;;19.77;69.31;99104.69;5010046;28;20194;-80
2023/09/22 08:57:46;;;;;;;0.00;0.00;;;;;;;19.87;68.99;99101.84;4998968;28;20189;-80
2023/09/22 09:00:20;;;;;;;0.00;0.00;;;;;;;20.00;69.32;99101.38;5002745;28;20180;-79
2023/09/22 09:02:46;;;;;;;0.50;0.50;;;;;;;20.14;68.25;99090.97;5012922;28;20228;-81
2023/09/22 09:05:17;;;;;;;0.00;0.00;;;;;;;20.56;67.39;99102.13;5005144;28;20549;-82
2023/09/22 09:07:43;;;;;;;0.00;0.00;;;;;;;20.79;66.35;99107.81;5014502;28;20184;-78
2023/09/22 09:10:10;;;;;;;0.10;0.10;;;;;;;20.53;65.96;99087.06;5014071;28;20291;-82
2023/09/22 09:12:44;;;;;;;0.20;0.10;;;;;;;20.25;66.75;99104.72;5014183;28;20219;-78
2023/09/22 09:15:10;;;;;;;0.00;0.00;;;;;;;20.01;67.09;99076.00;5015294;28;20183;-78
2023/09/22 09:17:35;;;;;;;0.00;0.00;;;;;;;19.88;66.50;99072.94;5011781;28;20179;-79
2023/09/22 09:20:02;;;;;;;0.40;0.37;;;;;;;19.85;66.52;99068.22;5000169;28;20215;-77
2023/09/22 09:22:33;;;;;;;0.00;0.00;;;;;;;19.73;66.99;99077.00;5000339;28;20192;-78
2023/09/22 09:24:59;;;;;;;0.00;0.00;;;;;;;20.18;66.22;99107.56;4999937;28;20181;-78
2023/09/22 09:27:26;;;;;;;0.13;0.13;;;;;;;20.26;66.31;99089.69;5025473;28;20208;-79
2023/09/22 09:29:53;;;;;;;1.17;0.07;;;;;;;19.92;66.09;99053.50;4999533;28;20208;-78
2023/09/22 09:32:25;;;;;;;0.00;0.00;;;;;;;19.83;66.71;99069.81;5001460;28;20180;-78
2023/09/22 09:34:52;;;;;;;0.23;0.23;;;;;;;19.79;66.53;99047.66;5006212;28;20243;-77
2023/09/22 09:37:17;;;;;;;0.07;0.07;;;;;;;19.35;67.30;99028.94;5013954;28;20189;-78
2023/09/22 09:39:52;;;;;;;0.73;0.20;;;;;;;19.29;68.62;99036.09;5013584;28;20183;-77
2023/09/22 09:42:19;;;;;;;2.23;0.20;;;;;;;19.43;68.54;99049.06;5013802;28;20179;-78
2023/09/22 09:44:52;;;;;;;0.53;0.33;;;;;;;19.92;67.56;99056.28;5015346;28;20228;-78
2023/09/22 09:47:35;;;;;;;0.20;0.20;;;;;;;20.04;66.76;99057.75;5013664;28;20227;-78
2023/09/22 09:50:04;;;;;;;0.00;0.00;;;;;;;20.18;66.75;99065.97;5004692;28;20236;-77
2023/09/22 09:52:37;;;;;;;0.43;0.43;;;;;;;20.32;66.35;99070.59;5014442;28;20246;-77
2023/09/22 09:55:12;;;;;;;0.00;0.00;;;;;;;20.90;65.65;99091.81;5015035;28;20204;-78
2023/09/22 09:57:39;;;;;;;0.07;0.07;;;;;;;20.97;65.68;99094.50;5015022;28;20179;-78
2023/09/22 10:00:19;;;;;;;0.00;0.00;;;;;;;20.99;64.90;99099.66;5012794;28;20186;-77
2023/09/22 10:02:48;;;;;;;0.00;0.00;;;;;;;20.70;64.52;99063.91;5015631;28;20196;-78
2023/09/22 10:05:15;;;;;;;0.00;0.00;;;;;;;21.03;65.00;99084.53;5013894;28;20215;-78
2023/09/22 10:07:45;;;;;;;1.17;0.30;;;;;;;21.21;64.27;99077.97;5015073;28;20547;-76
2023/09/22 10:10:12;;;;;;;0.10;0.03;;;;;;;21.65;64.22;99122.25;5012734;28;20200;-78
2023/09/22 10:12:39;;;;;;;0.33;0.33;;;;;;;21.60;62.79;99106.03;5014569;28;20188;-77
2023/09/22 10:15:05;;;;;;;1.13;0.73;;;;;;;21.42;61.68;99085.28;5013226;28;20227;-77
2023/09/22 10:17:40;;;;;;;0.50;0.20;;;;;;;21.13;62.86;99059.81;5012770;28;20180;-78
2023/09/22 10:20:13;;;;;;;1.30;0.90;;;;;;;20.67;62.70;99034.16;5013454;28;20221;-77
2023/09/22 10:22:39;;;;;;;0.30;0.30;;;;;;;20.88;62.88;99069.25;5014342;28;20255;-78
2023/09/22 10:25:13;;;;;;;1.37;0.30;;;;;;;20.80;62.10;99073.28;5008428;28;20188;-78
2023/09/22 10:27:55;;;;;;;0.50;0.50;;;;;;;20.61;62.85;99063.59;5013261;28;20792;-78
2023/09/22 10:30:22;;;;;;;0.13;0.13;;;;;;;20.78;63.09;99107.03;4996810;28;20177;-79
2023/09/22 10:32:47;;;;;;;0.10;0.10;;;;;;;21.30;63.26;99126.28;5017753;28;20579;-79
2023/09/22 10:35:15;;;;;;;0.43;0.33;;;;;;;21.04;62.41;99071.44;5010313;28;20188;-78
2023/09/22 10:38:04;;;;;;;0.10;0.10;;;;;;;21.05;62.14;99071.00;5015044;28;20177;-79
2023/09/22 10:40:30;;;;;;;0.00;0.00;;;;;;;21.03;61.95;99072.63;5012309;28;20271;-79
2023/09/22 10:42:55;;;;;;;0.20;0.20;;;;;;;21.25;62.06;99067.59;5014695;28;20258;-79
2023/09/22 10:45:25;;;;;;;0.30;0.30;;;;;;;21.33;62.12;99080.22;5000751;28;20191;-78
2023/09/22 10:47:52;;;;;;;0.00;0.00;;;;;;;21.62;61.61;99098.06;5000980;28;20185;-79
2023/09/22 10:50:20;;;;;;;0.10;0.10;;;;;;;21.89;62.19;99111.19;5015514;28;20217;-78
2023/09/22 10:52:52;;;;;;;0.00;0.00;;;;;;;21.17;61.39;99039.13;5013072;28;20208;-78
2023/09/22 10:55:37;;;;;;;0.73;0.30;;;;;;;21.18;62.68;99068.47;4999823;28;20183;-79
2023/09/22 10:58:06;;;;;;;0.17;0.17;;;;;;;21.34;61.09;99079.78;5011241;28;20180;-78
2023/09/22 11:00:32;;;;;;;1.70;1.70;;;;;;;21.49;60.71;99076.81;5009480;28;20195;-79
2023/09/22 11:03:05;;;;;;;0.20;0.20;;;;;;;21.25;60.88;99056.50;5009775;28;20209;-79
2023/09/22 11:05:30;;;;;;;0.13;0.13;;;;;;;20.56;61.27;99039.06;5000557;28;20720;-79
2023/09/22 11:07:56;;;;;;;0.10;0.10;;;;;;;20.84;61.53;99060.19;5022653;28;20181;-79
2023/09/22 11:10:21;;;;;;;0.10;0.10;;;;;;;20.72;61.34;99038.50;5002282;28;20586;-79
2023/09/22 11:12:54;;;;;;;0.20;0.20;;;;;;;21.39;61.47;99106.31;5018253;28;20249;-79
2023/09/22 11:15:20;;;;;;;1.30;0.20;;;;;;;21.43;60.39;99087.63;4999206;28;20263;-79
2023/09/22 11:17:46;;;;;;;0.20;0.20;;;;;;;21.52;59.87;99084.31;5009766;28;20211;-79
2023/09/22 11:20:22;;;;;;;0.67;0.63;;;;;;;21.45;60.16;99090.78;5003029;28;20181;-79
2023/09/22 11:22:47;;;;;;;0.00;0.00;;;;;;;22.35;60.21;99152.22;5008011;28;20215;-79
2023/09/22 11:25:13;;;;;;;0.00;0.00;;;;;;;22.75;57.98;99139.22;5014441;28;20191;-79
2023/09/22 11:27:51;;;;;;;0.73;0.33;;;;;;;22.69;56.03;99126.19;5001335;28;20275;-79
2023/09/22 11:30:27;;;;;;;0.00;0.00;;;;;;;22.44;56.20;99090.47;4992231;28;20666;-79
2023/09/22 11:32:54;;;;;;;0.00;0.00;;;;;;;22.68;56.25;99127.41;5013904;28;20196;-79